Terminal Aerodrome Forecast
Issued by NWS

Home | Current Version | Previous Version | Text Only | Print | Product List | Glossary On
Versions: 1 2 3 4 5 6 7 8 9 10 11 12 13 14 15 16
000
FTUS46 KSEW 292300
TAFBLI
TAF
KBLI 292328Z 3000/3024 VRB05KT P6SM -RA OVC040
      TEMPO 3000/3003 5SM -RA BR BKN022 OVC040
     FM300500 07005KT P6SM -RA BKN060 OVC100
     FM301200 17008KT P6SM SCT060 BKN100
     FM301800 15010G20KT P6SM SCT060 BKN120=

USA.gov is the U.S. government's official web portal to all federal, state and local government web resources and services.